sensor_id;sensor_type;location;lat;lon;timestamp;pressure;altitude;pressure_sealevel;temperature;humidity
37238;BME280;23129;49.662;8.448;2023-04-02T00:00:19;99887.91;;;10.52;100.00
37238;BME280;23129;49.662;8.448;2023-04-02T00:02:57;99890.63;;;10.51;100.00
37238;BME280;23129;49.662;8.448;2023-04-02T00:05:41;99881.09;;;10.48;100.00
37238;BME280;23129;49.662;8.448;2023-04-02T00:08:28;99884.63;;;10.47;100.00
37238;BME280;23129;49.662;8.448;2023-04-02T00:11:06;99887.28;;;10.46;100.00
37238;BME280;23129;49.662;8.448;2023-04-02T00:13:39;99898.63;;;10.46;100.00
37238;BME280;23129;49.662;8.448;2023-04-02T00:16:16;99896.00;;;10.46;100.00
37238;BME280;23129;49.662;8.448;2023-04-02T00:18:52;99900.47;;;10.44;100.00
37238;BME280;23129;49.662;8.448;2023-04-02T00:21:25;99895.22;;;10.44;100.00
37238;BME280;23129;49.662;8.448;2023-04-02T00:23:56;99897.91;;;10.43;100.00
37238;BME280;23129;49.662;8.448;2023-04-02T00:26:32;99903.22;;;10.41;100.00
37238;BME280;23129;49.662;8.448;2023-04-02T00:29:04;99900.59;;;10.41;100.00
37238;BME280;23129;49.662;8.448;2023-04-02T00:31:33;99911.97;;;10.40;100.00
37238;BME280;23129;49.662;8.448;2023-04-02T00:34:11;99909.34;;;10.40;100.00
37238;BME280;23129;49.662;8.448;2023-04-02T00:36:42;99913.69;;;10.41;100.00
37238;BME280;23129;49.662;8.448;2023-04-02T00:39:19;99905.84;;;10.41;100.00
37238;BME280;23129;49.662;8.448;2023-04-02T00:41:53;99910.16;;;10.42;100.00
37238;BME280;23129;49.662;8.448;2023-04-02T00:44:27;99897.91;;;10.43;100.00
37238;BME280;23129;49.662;8.448;2023-04-02T00:47:06;99906.59;;;10.43;100.00
37238;BME280;23129;49.662;8.448;2023-04-02T00:49:37;99913.63;;;10.43;100.00
37238;BME280;23129;49.662;8.448;2023-04-02T00:52:09;99914.47;;;10.43;100.00
37238;BME280;23129;49.662;8.448;2023-04-02T00:54:44;99909.22;;;10.43;100.00
37238;BME280;23129;49.662;8.448;2023-04-02T00:57:19;99914.47;;;10.43;100.00
37238;BME280;23129;49.662;8.448;2023-04-02T00:59:57;99922.34;;;10.43;100.00
37238;BME280;23129;49.662;8.448;2023-04-02T01:02:29;99918.81;;;10.44;100.00
37238;BME280;23129;49.662;8.448;2023-04-02T01:05:00;99922.34;;;10.43;100.00
37238;BME280;23129;49.662;8.448;2023-04-02T01:07:47;99921.56;;;10.41;100.00
37238;BME280;23129;49.662;8.448;2023-04-02T01:10:52;99923.38;;;10.39;100.00
37238;BME280;23129;49.662;8.448;2023-04-02T01:13:32;99919.03;;;10.38;100.00
37238;BME280;23129;49.662;8.448;2023-04-02T01:16:08;99916.47;;;10.37;100.00
37238;BME280;23129;49.662;8.448;2023-04-02T01:18:51;99926.94;;;10.37;100.00
37238;BME280;23129;49.662;8.448;2023-04-02T01:21:49;99927.03;;;10.35;100.00
37238;BME280;23129;49.662;8.448;2023-04-02T01:24:23;99925.28;;;10.34;100.00
37238;BME280;23129;49.662;8.448;2023-04-02T01:26:59;99927.13;;;10.32;100.00
37238;BME280;23129;49.662;8.448;2023-04-02T01:29:31;99935.00;;;10.32;100.00
37238;BME280;23129;49.662;8.448;2023-04-02T01:32:04;99934.19;;;10.30;100.00
37238;BME280;23129;49.662;8.448;2023-04-02T01:34:34;99937.75;;;10.27;100.00
37238;BME280;23129;49.662;8.448;2023-04-02T01:37:22;99945.63;;;10.26;100.00
37238;BME280;23129;49.662;8.448;2023-04-02T01:40:09;99937.88;;;10.23;100.00
37238;BME280;23129;49.662;8.448;2023-04-02T01:42:48;99942.25;;;10.22;100.00
37238;BME280;23129;49.662;8.448;2023-04-02T01:45:22;99941.41;;;10.22;100.00
37238;BME280;23129;49.662;8.448;2023-04-02T01:47:51;99944.94;;;10.21;100.00
37238;BME280;23129;49.662;8.448;2023-04-02T01:50:26;99949.34;;;10.20;100.00
37238;BME280;23129;49.662;8.448;2023-04-02T01:53:00;99949.38;;;10.19;100.00
37238;BME280;23129;49.662;8.448;2023-04-02T01:55:34;99950.31;;;10.18;100.00
37238;BME280;23129;49.662;8.448;2023-04-02T01:58:07;99951.25;;;10.15;100.00
37238;BME280;23129;49.662;8.448;2023-04-02T02:00:42;99958.31;;;10.13;100.00
37238;BME280;23129;49.662;8.448;2023-04-02T02:03:13;99961.00;;;10.12;100.00
37238;BME280;23129;49.662;8.448;2023-04-02T02:05:42;99966.22;;;10.12;100.00
37238;BME280;23129;49.662;8.448;2023-04-02T02:08:28;99958.41;;;10.10;100.00
37238;BME280;23129;49.662;8.448;2023-04-02T02:10:58;99965.41;;;10.10;100.00
37238;BME280;23129;49.662;8.448;2023-04-02T02:13:26;99969.75;;;10.11;100.00
37238;BME280;23129;49.662;8.448;2023-04-02T02:15:58;99974.97;;;10.11;100.00
37238;BME280;23129;49.662;8.448;2023-04-02T02:18:27;99969.75;;;10.11;100.00
37238;BME280;23129;49.662;8.448;2023-04-02T02:20:57;99978.53;;;10.10;100.00
37238;BME280;23129;49.662;8.448;2023-04-02T02:23:27;99990.72;;;10.11;100.00
37238;BME280;23129;49.662;8.448;2023-04-02T02:25:57;99984.56;;;10.12;100.00
37238;BME280;23129;49.662;8.448;2023-04-02T02:28:28;99983.66;;;10.13;100.00
37238;BME280;23129;49.662;8.448;2023-04-02T02:31:02;99994.13;;;10.13;100.00
37238;BME280;23129;49.662;8.448;2023-04-02T02:33:38;99990.59;;;10.14;100.00
37238;BME280;23129;49.662;8.448;2023-04-02T02:36:15;100000.22;;;10.13;100.00
37238;BME280;23129;49.662;8.448;2023-04-02T02:38:49;99993.22;;;10.14;100.00
37238;BME280;23129;49.662;8.448;2023-04-02T02:41:44;100003.78;;;10.12;100.00
37238;BME280;23129;49.662;8.448;2023-04-02T02:44:18;100009.88;;;10.13;100.00
37238;BME280;23129;49.662;8.448;2023-04-02T02:46:52;100011.66;;;10.11;100.00
37238;BME280;23129;49.662;8.448;2023-04-02T02:49:27;100009.97;;;10.10;100.00
37238;BME280;23129;49.662;8.448;2023-04-02T02:52:05;100017.00;;;10.07;100.00
37238;BME280;23129;49.662;8.448;2023-04-02T02:54:49;100015.31;;;10.06;100.00
37238;BME280;23129;49.662;8.448;2023-04-02T02:57:24;100017.09;;;10.04;100.00
37238;BME280;23129;49.662;8.448;2023-04-02T02:59:55;100020.66;;;10.03;100.00
37238;BME280;23129;49.662;8.448;2023-04-02T03:02:27;100018.06;;;10.02;100.00
37238;BME280;23129;49.662;8.448;2023-04-02T03:04:57;100027.69;;;10.01;100.00
37238;BME280;23129;49.662;8.448;2023-04-02T03:07:29;100030.38;;;10.00;100.00
37238;BME280;23129;49.662;8.448;2023-04-02T03:10:05;100029.53;;;9.99;100.00
37238;BME280;23129;49.662;8.448;2023-04-02T03:12:46;100033.13;;;9.95;100.00
37238;BME280;23129;49.662;8.448;2023-04-02T03:15:24;100034.97;;;9.93;100.00
37238;BME280;23129;49.662;8.448;2023-04-02T03:18:01;100038.56;;;9.89;100.00
37238;BME280;23129;49.662;8.448;2023-04-02T03:20:36;100052.69;;;9.85;100.00
37238;BME280;23129;49.662;8.448;2023-04-02T03:23:15;100048.41;;;9.81;100.00
37238;BME280;23129;49.662;8.448;2023-04-02T03:25:51;100053.81;;;9.76;100.00
37238;BME280;23129;49.662;8.448;2023-04-02T03:28:27;100056.47;;;9.75;100.00
37238;BME280;23129;49.662;8.448;2023-04-02T03:31:01;100065.22;;;9.74;100.00
37238;BME280;23129;49.662;8.448;2023-04-02T03:33:34;100063.53;;;9.73;100.00
37238;BME280;23129;49.662;8.448;2023-04-02T03:36:16;100067.03;;;9.72;100.00
37238;BME280;23129;49.662;8.448;2023-04-02T03:38:50;100062.69;;;9.72;100.00
37238;BME280;23129;49.662;8.448;2023-04-02T03:41:25;100070.47;;;9.74;100.00
37238;BME280;23129;49.662;8.448;2023-04-02T03:44:00;100073.06;;;9.75;100.00
37238;BME280;23129;49.662;8.448;2023-04-02T03:46:34;100079.16;;;9.76;100.00
37238;BME280;23129;49.662;8.448;2023-04-02T03:49:10;100079.16;;;9.76;100.00
37238;BME280;23129;49.662;8.448;2023-04-02T03:51:53;100081.00;;;9.72;100.00
37238;BME280;23129;49.662;8.448;2023-04-02T03:54:23;100081.03;;;9.71;100.00
37238;BME280;23129;49.662;8.448;2023-04-02T03:56:52;100095.06;;;9.70;100.00
37238;BME280;23129;49.662;8.448;2023-04-02T03:59:34;100097.75;;;9.67;100.00
37238;BME280;23129;49.662;8.448;2023-04-02T04:02:22;100091.69;;;9.65;100.00
37238;BME280;23129;49.662;8.448;2023-04-02T04:04:55;100094.34;;;9.63;100.00
37238;BME280;23129;49.662;8.448;2023-04-02T04:07:31;100100.56;;;9.60;100.00
37238;BME280;23129;49.662;8.448;2023-04-02T04:10:01;100105.84;;;9.59;100.00
37238;BME280;23129;49.662;8.448;2023-04-02T04:12:34;100110.22;;;9.58;100.00
37238;BME280;23129;49.662;8.448;2023-04-02T04:15:08;100114.63;;;9.56;100.00
37238;BME280;23129;49.662;8.448;2023-04-02T04:17:49;100119.88;;;9.56;100.00
37238;BME280;23129;49.662;8.448;2023-04-02T04:20:30;100117.25;;;9.56;100.00
37238;BME280;23129;49.662;8.448;2023-04-02T04:23:13;100123.41;;;9.55;100.00
37238;BME280;23129;49.662;8.448;2023-04-02T04:25:45;100134.78;;;9.54;100.00
37238;BME280;23129;49.662;8.448;2023-04-02T04:28:24;100126.94;;;9.53;100.00
37238;BME280;23129;49.662;8.448;2023-04-02T04:30:59;100138.34;;;9.52;100.00
37238;BME280;23129;49.662;8.448;2023-04-02T04:33:40;100140.09;;;9.51;100.00
37238;BME280;23129;49.662;8.448;2023-04-02T04:36:21;100140.09;;;9.51;100.00
37238;BME280;23129;49.662;8.448;2023-04-02T04:39:05;100142.81;;;9.48;100.00
37238;BME280;23129;49.662;8.448;2023-04-02T04:41:38;100138.50;;;9.46;100.00
37238;BME280;23129;49.662;8.448;2023-04-02T04:44:15;100146.38;;;9.46;100.00
37238;BME280;23129;49.662;8.448;2023-04-02T04:46:51;100146.41;;;9.44;100.00
37238;BME280;23129;49.662;8.448;2023-04-02T04:49:27;100155.16;;;9.43;100.00
37238;BME280;23129;49.662;8.448;2023-04-02T04:52:07;100153.41;;;9.42;100.00
37238;BME280;23129;49.662;8.448;2023-04-02T04:54:38;100163.00;;;9.43;100.00
37238;BME280;23129;49.662;8.448;2023-04-02T04:57:29;100165.63;;;9.43;100.00
37238;BME280;23129;49.662;8.448;2023-04-02T05:00:05;100178.66;;;9.45;100.00
37238;BME280;23129;49.662;8.448;2023-04-02T05:02:45;100183.88;;;9.46;100.00
37238;BME280;23129;49.662;8.448;2023-04-02T05:05:19;100183.81;;;9.48;100.00
37238;BME280;23129;49.662;8.448;2023-04-02T05:07:57;100189.94;;;9.48;100.00
37238;BME280;23129;49.662;8.448;2023-04-02T05:10:36;100187.34;;;9.47;100.00
37238;BME280;23129;49.662;8.448;2023-04-02T05:13:15;100189.97;;;9.45;100.00
37238;BME280;23129;49.662;8.448;2023-04-02T05:15:51;100192.56;;;9.47;100.00
37238;BME280;23129;49.662;8.448;2023-04-02T05:18:28;100196.97;;;9.46;100.00
37238;BME280;23129;49.662;8.448;2023-04-02T05:21:06;100208.31;;;9.45;100.00
37238;BME280;23129;49.662;8.448;2023-04-02T05:23:47;100204.84;;;9.45;100.00
37238;BME280;23129;49.662;8.448;2023-04-02T05:26:20;100207.44;;;9.46;100.00
37238;BME280;23129;49.662;8.448;2023-04-02T05:28:56;100207.44;;;9.46;100.00
37238;BME280;23129;49.662;8.448;2023-04-02T05:31:30;100212.56;;;9.49;100.00
37238;BME280;23129;49.662;8.448;2023-04-02T05:34:03;100219.50;;;9.52;100.00
37238;BME280;23129;49.662;8.448;2023-04-02T05:36:32;100225.53;;;9.54;100.00
37238;BME280;23129;49.662;8.448;2023-04-02T05:39:08;100220.28;;;9.55;100.00
37238;BME280;23129;49.662;8.448;2023-04-02T05:41:45;100231.56;;;9.57;100.00
37238;BME280;23129;49.662;8.448;2023-04-02T05:44:32;100232.38;;;9.59;100.00
37238;BME280;23129;49.662;8.448;2023-04-02T05:47:11;100232.34;;;9.61;100.00
37238;BME280;23129;49.662;8.448;2023-04-02T05:49:44;100236.63;;;9.64;100.00
37238;BME280;23129;49.662;8.448;2023-04-02T05:55:53;100253.97;;;9.68;100.00
37238;BME280;23129;49.662;8.448;2023-04-02T05:58:30;100252.19;;;9.70;100.00
37238;BME280;23129;49.662;8.448;2023-04-02T06:01:38;100257.34;;;9.73;100.00
37238;BME280;23129;49.662;8.448;2023-04-02T06:04:20;100268.56;;;9.76;100.00
37238;BME280;23129;49.662;8.448;2023-04-02T06:06:58;100264.19;;;9.77;100.00
37238;BME280;23129;49.662;8.448;2023-04-02T06:09:36;100268.50;;;9.79;100.00
37238;BME280;23129;49.662;8.448;2023-04-02T06:12:23;100274.50;;;9.83;100.00
37238;BME280;23129;49.662;8.448;2023-04-02T06:14:57;100282.25;;;9.88;100.00
37238;BME280;23129;49.662;8.448;2023-04-02T06:17:29;100283.09;;;9.88;100.00
37238;BME280;23129;49.662;8.448;2023-04-02T06:20:01;100290.03;;;9.89;100.00
37238;BME280;23129;49.662;8.448;2023-04-02T06:22:36;100293.50;;;9.91;100.00
37238;BME280;23129;49.662;8.448;2023-04-02T06:25:10;100289.19;;;9.89;100.00
37238;BME280;23129;49.662;8.448;2023-04-02T06:27:44;100295.28;;;9.89;100.00
37238;BME280;23129;49.662;8.448;2023-04-02T06:30:23;100301.34;;;9.91;100.00
37238;BME280;23129;49.662;8.448;2023-04-02T06:32:53;100298.66;;;9.94;100.00
37238;BME280;23129;49.662;8.448;2023-04-02T06:35:22;100310.75;;;9.98;100.00
37238;BME280;23129;49.662;8.448;2023-04-02T06:37:59;100315.03;;;10.02;100.00
37238;BME280;23129;49.662;8.448;2023-04-02T06:40:38;100315.78;;;10.06;100.00
37238;BME280;23129;49.662;8.448;2023-04-02T06:43:30;100322.72;;;10.09;100.00
37238;BME280;23129;49.662;8.448;2023-04-02T06:46:41;100323.50;;;10.11;100.00
37238;BME280;23129;49.662;8.448;2023-04-02T06:49:17;100331.25;;;10.15;100.00
37238;BME280;23129;49.662;8.448;2023-04-02T06:51:51;100334.72;;;10.16;100.00
37238;BME280;23129;49.662;8.448;2023-04-02T06:54:21;100340.75;;;10.19;100.00
37238;BME280;23129;49.662;8.448;2023-04-02T06:56:55;100339.84;;;10.20;100.00
37238;BME280;23129;49.662;8.448;2023-04-02T06:59:32;100349.38;;;10.23;100.00
37238;BME280;23129;49.662;8.448;2023-04-02T07:02:24;100348.44;;;10.25;100.00
37238;BME280;23129;49.662;8.448;2023-04-02T07:05:02;100357.16;;;10.27;100.00
37238;BME280;23129;49.662;8.448;2023-04-02T07:07:34;100362.28;;;10.32;100.00
37238;BME280;23129;49.662;8.448;2023-04-02T07:10:06;100377.94;;;10.35;100.00
37238;BME280;23129;49.662;8.448;2023-04-02T07:12:35;100369.91;;;10.40;100.00
37238;BME280;23129;49.662;8.448;2023-04-02T07:15:08;100384.66;;;10.44;100.00
37238;BME280;23129;49.662;8.448;2023-04-02T07:17:39;100379.38;;;10.45;100.00
37238;BME280;23129;49.662;8.448;2023-04-02T07:20:24;100384.53;;;10.48;100.00
37238;BME280;23129;49.662;8.448;2023-04-02T07:22:54;100388.75;;;10.54;100.00
37238;BME280;23129;49.662;8.448;2023-04-02T07:25:23;100389.41;;;10.61;100.00
37238;BME280;23129;49.662;8.448;2023-04-02T07:27:53;100399.72;;;10.67;100.00
37238;BME280;23129;49.662;8.448;2023-04-02T07:30:23;100403.03;;;10.73;100.00
37238;BME280;23129;49.662;8.448;2023-04-02T07:32:52;100407.22;;;10.81;100.00
37238;BME280;23129;49.662;8.448;2023-04-02T07:35:20;100409.50;;;10.91;100.00
37238;BME280;23129;49.662;8.448;2023-04-02T07:37:49;100409.28;;;10.99;100.00
37238;BME280;23129;49.662;8.448;2023-04-02T07:40:20;100416.88;;;11.08;100.00
37238;BME280;23129;49.662;8.448;2023-04-02T07:42:50;100420.06;;;11.18;100.00
37238;BME280;23129;49.662;8.448;2023-04-02T07:45:19;100422.41;;;11.27;100.00
37238;BME280;23129;49.662;8.448;2023-04-02T07:47:48;100429.22;;;11.34;100.00
37238;BME280;23129;49.662;8.448;2023-04-02T07:50:17;100425.56;;;11.38;100.00
37238;BME280;23129;49.662;8.448;2023-04-02T07:52:46;100430.78;;;11.40;100.00
37238;BME280;23129;49.662;8.448;2023-04-02T07:55:15;100442.09;;;11.42;100.00
37238;BME280;23129;49.662;8.448;2023-04-02T07:57:48;100442.06;;;11.43;100.00
37238;BME280;23129;49.662;8.448;2023-04-02T08:00:18;100448.97;;;11.46;100.00
37238;BME280;23129;49.662;8.448;2023-04-02T08:02:50;100456.69;;;11.51;100.00
37238;BME280;23129;49.662;8.448;2023-04-02T08:05:19;100449.63;;;11.53;100.00
37238;BME280;23129;49.662;8.448;2023-04-02T08:07:52;100463.50;;;11.58;100.00
37238;BME280;23129;49.662;8.448;2023-04-02T08:10:22;100466.06;;;11.59;100.00
37238;BME280;23129;49.662;8.448;2023-04-02T08:12:51;100463.50;;;11.58;100.00
37238;BME280;23129;49.662;8.448;2023-04-02T08:15:19;100472.25;;;11.57;100.00
37238;BME280;23129;49.662;8.448;2023-04-02T08:17:49;100474.00;;;11.58;100.00
37238;BME280;23129;49.662;8.448;2023-04-02T08:20:20;100476.47;;;11.62;100.00
37238;BME280;23129;49.662;8.448;2023-04-02T08:22:49;100484.22;;;11.67;100.00
37238;BME280;23129;49.662;8.448;2023-04-02T08:25:18;100484.88;;;11.74;100.00
37238;BME280;23129;49.662;8.448;2023-04-02T08:27:47;100488.34;;;11.74;100.00
37238;BME280;23129;49.662;8.448;2023-04-02T08:30:18;100493.63;;;11.74;100.00
37238;BME280;23129;49.662;8.448;2023-04-02T08:32:48;100497.91;;;11.77;100.00
37238;BME280;23129;49.662;8.448;2023-04-02T08:35:17;100504.75;;;11.82;100.00
37238;BME280;23129;49.662;8.448;2023-04-02T08:37:45;100504.47;;;11.92;100.00
37238;BME280;23129;49.662;8.448;2023-04-02T08:40:21;100509.34;;;12.04;100.00
37238;BME280;23129;49.662;8.448;2023-04-02T08:43:08;100511.53;;;12.18;100.00
37238;BME280;23129;49.662;8.448;2023-04-02T08:45:54;100522.47;;;12.30;100.00
37238;BME280;23129;49.662;8.448;2023-04-02T08:48:31;100516.78;;;12.43;100.00
37238;BME280;23129;49.662;8.448;2023-04-02T08:51:01;100524.16;;;12.58;100.00
37238;BME280;23129;49.662;8.448;2023-04-02T08:53:35;100527.22;;;12.71;100.00
37238;BME280;23129;49.662;8.448;2023-04-02T08:56:10;100522.38;;;12.84;100.00
37238;BME280;23129;49.662;8.448;2023-04-02T08:58:47;100536.00;;;12.95;100.00
37238;BME280;23129;49.662;8.448;2023-04-02T09:01:28;100534.06;;;13.00;100.00
37238;BME280;23129;49.662;8.448;2023-04-02T09:04:08;100537.50;;;13.02;100.00
37238;BME280;23129;49.662;8.448;2023-04-02T09:06:41;100544.38;;;13.06;100.00
37238;BME280;23129;49.662;8.448;2023-04-02T09:09:11;100547.75;;;13.10;100.00
37238;BME280;23129;49.662;8.448;2023-04-02T09:11:48;100554.56;;;13.15;100.00
37238;BME280;23129;49.662;8.448;2023-04-02T09:14:20;100557.28;;;13.14;100.00
37238;BME280;23129;49.662;8.448;2023-04-02T09:16:54;100573.19;;;12.86;100.00
37238;BME280;23129;49.662;8.448;2023-04-02T09:19:30;100581.53;;;12.47;100.00
37238;BME280;23129;49.662;8.448;2023-04-02T09:22:06;100584.56;;;12.08;100.00
37238;BME280;23129;49.662;8.448;2023-04-02T09:24:36;100596.09;;;11.74;100.00
37238;BME280;23129;49.662;8.448;2023-04-02T09:27:17;100595.25;;;11.42;100.00
37238;BME280;23129;49.662;8.448;2023-04-02T09:29:47;100606.47;;;11.18;100.00
37238;BME280;23129;49.662;8.448;2023-04-02T09:32:39;100619.50;;;10.88;100.00
37238;BME280;23129;49.662;8.448;2023-04-02T09:35:17;100620.00;;;10.70;100.00
37238;BME280;23129;49.662;8.448;2023-04-02T09:38:16;100638.00;;;10.49;100.00
37238;BME280;23129;49.662;8.448;2023-04-02T09:40:49;100634.88;;;10.35;100.00
37238;BME280;23129;49.662;8.448;2023-04-02T09:43:20;100642.88;;;10.26;100.00
37238;BME280;23129;49.662;8.448;2023-04-02T09:45:58;100652.84;;;10.12;100.00
37238;BME280;23129;49.662;8.448;2023-04-02T09:48:30;100660.00;;;10.03;100.00
37238;BME280;23129;49.662;8.448;2023-04-02T09:51:23;100661.94;;;9.95;100.00
37238;BME280;23129;49.662;8.448;2023-04-02T09:54:06;100662.97;;;9.87;100.00
37238;BME280;23129;49.662;8.448;2023-04-02T09:56:38;100665.72;;;9.82;100.00
37238;BME280;23129;49.662;8.448;2023-04-02T09:59:15;100677.06;;;9.81;100.00
37238;BME280;23129;49.662;8.448;2023-04-02T10:01:45;100677.13;;;9.79;100.00
37238;BME280;23129;49.662;8.448;2023-04-02T10:04:35;100678.09;;;9.74;100.00
37238;BME280;23129;49.662;8.448;2023-04-02T10:07:06;100686.09;;;9.68;100.00
37238;BME280;23129;49.662;8.448;2023-04-02T10:09:36;100692.34;;;9.60;100.00
37238;BME280;23129;49.662;8.448;2023-04-02T10:12:11;100705.56;;;9.54;100.00
37238;BME280;23129;49.662;8.448;2023-04-02T10:14:43;100699.56;;;9.49;100.00
37238;BME280;23129;49.662;8.448;2023-04-02T10:17:18;100708.34;;;9.45;100.00
37238;BME280;23129;49.662;8.448;2023-04-02T10:19:52;100713.63;;;9.42;100.00
37238;BME280;23129;49.662;8.448;2023-04-02T10:22:23;100718.06;;;9.40;100.00
37238;BME280;23129;49.662;8.448;2023-04-02T10:24:52;100724.22;;;9.37;100.00
37238;BME280;23129;49.662;8.448;2023-04-02T10:27:25;100728.59;;;9.35;100.00
37238;BME280;23129;49.662;8.448;2023-04-02T10:30:15;100734.75;;;9.33;100.00
37238;BME280;23129;49.662;8.448;2023-04-02T10:32:49;100727.84;;;9.29;100.00
37238;BME280;23129;49.662;8.448;2023-04-02T10:35:33;100737.53;;;9.24;100.00
37238;BME280;23129;49.662;8.448;2023-04-02T10:38:25;100743.69;;;9.21;100.00
37238;BME280;23129;49.662;8.448;2023-04-02T10:41:00;100748.03;;;9.22;100.00
37238;BME280;23129;49.662;8.448;2023-04-02T10:43:48;100746.41;;;9.17;100.00
37238;BME280;23129;49.662;8.448;2023-04-02T10:46:23;100751.63;;;9.15;100.00
37238;BME280;23129;49.662;8.448;2023-04-02T10:49:04;100761.28;;;9.11;100.00
37238;BME280;23129;49.662;8.448;2023-04-02T10:51:42;100764.81;;;9.10;100.00
37238;BME280;23129;49.662;8.448;2023-04-02T10:54:31;100763.03;;;9.12;100.00
37238;BME280;23129;49.662;8.448;2023-04-02T10:57:08;100766.53;;;9.11;100.00
37238;BME280;23129;49.662;8.448;2023-04-02T10:59:41;100765.63;;;9.16;100.00
37238;BME280;23129;49.662;8.448;2023-04-02T11:02:29;100774.31;;;9.16;100.00
37238;BME280;23129;49.662;8.448;2023-04-02T11:05:10;100783.84;;;9.22;100.00
37238;BME280;23129;49.662;8.448;2023-04-02T11:07:52;100786.28;;;9.29;100.00
37238;BME280;23129;49.662;8.448;2023-04-02T11:10:25;100781.75;;;9.39;100.00
37238;BME280;23129;49.662;8.448;2023-04-02T11:13:00;100783.28;;;9.52;100.00
37238;BME280;23129;49.662;8.448;2023-04-02T11:15:30;100781.34;;;9.62;100.00
37238;BME280;23129;49.662;8.448;2023-04-02T11:18:00;100792.50;;;9.72;100.00
37238;BME280;23129;49.662;8.448;2023-04-02T11:21:03;100795.88;;;9.80;100.00
37238;BME280;23129;49.662;8.448;2023-04-02T11:23:37;100800.13;;;9.87;100.00
37238;BME280;23129;49.662;8.448;2023-04-02T11:26:34;100807.00;;;9.91;100.00
37238;BME280;23129;49.662;8.448;2023-04-02T11:29:14;100812.19;;;9.93;100.00
37238;BME280;23129;49.662;8.448;2023-04-02T11:31:44;100815.66;;;9.96;100.00
37238;BME280;23129;49.662;8.448;2023-04-02T11:37:07;100828.59;;;10.04;100.00
37238;BME280;23129;49.662;8.448;2023-04-02T11:39:50;100832.84;;;10.10;100.00
37238;BME280;23129;49.662;8.448;2023-04-02T11:42:29;100837.97;;;10.16;100.00
37238;BME280;23129;49.662;8.448;2023-04-02T11:48:27;100843.03;;;10.26;100.00
37238;BME280;23129;49.662;8.448;2023-04-02T11:50:56;100849.88;;;10.35;100.00
37238;BME280;23129;49.662;8.448;2023-04-02T11:53:31;100847.19;;;10.38;100.00
37238;BME280;23129;49.662;8.448;2023-04-02T11:56:08;100855.03;;;10.38;100.00
37238;BME280;23129;49.662;8.448;2023-04-02T11:58:56;100858.53;;;10.37;100.00
37238;BME280;23129;49.662;8.448;2023-04-02T12:02:00;100860.34;;;10.35;100.00
37238;BME280;23129;49.662;8.448;2023-04-02T12:04:57;100865.47;;;10.41;100.00
37238;BME280;23129;49.662;8.448;2023-04-02T12:08:13;100867.13;;;10.45;100.00
37238;BME280;23129;49.662;8.448;2023-04-02T12:10:54;100883.81;;;10.41;100.00
37238;BME280;23129;49.662;8.448;2023-04-02T12:13:51;100888.22;;;10.39;100.00
37238;BME280;23129;49.662;8.448;2023-04-02T12:16:21;100899.63;;;10.38;100.00
37238;BME280;23129;49.662;8.448;2023-04-02T12:18:51;100894.50;;;10.32;100.00
37238;BME280;23129;49.662;8.448;2023-04-02T12:21:24;100896.31;;;10.25;100.00
37238;BME280;23129;49.662;8.448;2023-04-02T12:23:57;100901.63;;;10.22;100.00
37238;BME280;23129;49.662;8.448;2023-04-02T12:26:38;100907.84;;;10.17;100.00
37238;BME280;23129;49.662;8.448;2023-04-02T12:29:32;100909.75;;;10.09;100.00
37238;BME280;23129;49.662;8.448;2023-04-02T12:32:00;100913.31;;;10.06;100.00
37238;BME280;23129;49.662;8.448;2023-04-02T12:34:30;100918.56;;;10.04;100.00
37238;BME280;23129;49.662;8.448;2023-04-02T12:37:01;100926.41;;;10.04;100.00
37238;BME280;23129;49.662;8.448;2023-04-02T12:39:33;100934.34;;;10.01;100.00
37238;BME280;23129;49.662;8.448;2023-04-02T12:42:02;100926.56;;;9.97;100.00
37238;BME280;23129;49.662;8.448;2023-04-02T12:44:31;100931.88;;;9.92;100.00
37238;BME280;23129;49.662;8.448;2023-04-02T12:47:00;100939.75;;;9.92;100.00
37238;BME280;23129;49.662;8.448;2023-04-02T12:49:34;100941.44;;;9.95;100.00
37238;BME280;23129;49.662;8.448;2023-04-02T12:52:06;100941.31;;;10.02;100.00
37238;BME280;23129;49.662;8.448;2023-04-02T12:54:44;100944.72;;;10.07;100.00
37238;BME280;23129;49.662;8.448;2023-04-02T12:57:39;100947.31;;;10.09;100.00
37238;BME280;23129;49.662;8.448;2023-04-02T13:00:32;100951.59;;;10.15;100.00
37238;BME280;23129;49.662;8.448;2023-04-02T13:03:17;100958.47;;;10.20;100.00
37238;BME280;23129;49.662;8.448;2023-04-02T13:05:49;100970.69;;;10.20;100.00
37238;BME280;23129;49.662;8.448;2023-04-02T13:08:24;100966.47;;;10.14;100.00
37238;BME280;23129;49.662;8.448;2023-04-02T13:10:55;100970.06;;;10.09;100.00
37238;BME280;23129;49.662;8.448;2023-04-02T13:13:28;100962.31;;;10.01;100.00
37238;BME280;23129;49.662;8.448;2023-04-02T13:16:26;100975.59;;;9.90;100.00
37238;BME280;23129;49.662;8.448;2023-04-02T13:19:23;100975.66;;;9.84;100.00
37238;BME280;23129;49.662;8.448;2023-04-02T13:21:53;100972.28;;;9.77;100.00
37238;BME280;23129;49.662;8.448;2023-04-02T13:24:24;100975.00;;;9.73;100.00
37238;BME280;23129;49.662;8.448;2023-04-02T13:26:55;100981.16;;;9.70;100.00
37238;BME280;23129;49.662;8.448;2023-04-02T13:29:26;100985.53;;;9.70;100.00
37238;BME280;23129;49.662;8.448;2023-04-02T13:31:59;100994.25;;;9.69;100.00
37238;BME280;23129;49.662;8.448;2023-04-02T13:34:29;100995.16;;;9.69;100.00
37238;BME280;23129;49.662;8.448;2023-04-02T13:36:57;100990.81;;;9.67;100.00
37238;BME280;23129;49.662;8.448;2023-04-02T13:39:26;100993.50;;;9.64;100.00
37238;BME280;23129;49.662;8.448;2023-04-02T13:41:57;100991.72;;;9.63;100.00